Terminal Aerodrome Forecast
Issued by NWS

Home | Current Version | Previous Version | Text Only | Print | Product List | Glossary On
Versions: 1 2 3 4 5 6 7 8 9 10 11 12 13 14 15 16 17 18 19 20 21 22 23 24 25 26 27
706
FTUS43 KILX 281147
TAFBMI
TAF
KBMI 281147Z 2812/2912 VRB05KT P6SM FEW080
     FM281300 13008KT P6SM VCSH SCT035
     FM282000 15004KT P6SM VCTS SCT035CB
     FM290100 09004KT P6SM BKN250=

USA.gov is the U.S. government's official web portal to all federal, state and local government web resources and services.